Time;durP1;ratioP1;P1;durP2;ratioP2;P2;SDS_P1;SDS_P2;PMS_P1;PMS_P2;Temp;Humidity;BMP_temperature;BMP_pressure;BME280_temperature;BME280_humidity;BME280_pressure;Samples;Min_cycle;Max_cycle;Signal;HPM_P1;HPM_P2
2022/05/11 00:01:18;;;;;;;3.00;2.08;;;;;;;20.79;52.06;99588.25;4891230;29;20029;-88
2022/05/11 00:03:43;;;;;;;2.67;2.05;;;;;;;20.83;51.93;99589.50;4875199;29;20035;-89
2022/05/11 00:06:08;;;;;;;2.47;2.28;;;;;;;20.79;52.01;99576.53;4875548;29;20056;-89
2022/05/11 00:08:34;;;;;;;3.42;2.53;;;;;;;20.77;51.67;99579.47;4890387;29;20036;-89
2022/05/11 00:11:01;;;;;;;3.05;2.10;;;;;;;20.75;51.71;99574.25;4891233;29;20028;-89
2022/05/11 00:13:28;;;;;;;4.85;1.90;;;;;;;20.73;51.88;99568.19;4890256;29;20048;-89
2022/05/11 00:15:53;;;;;;;4.85;2.20;;;;;;;20.74;51.94;99566.31;4890982;29;20032;-89
2022/05/11 00:18:19;;;;;;;3.53;2.30;;;;;;;20.69;51.42;99569.66;4890733;29;20407;-89
2022/05/11 00:20:44;;;;;;;4.40;2.30;;;;;;;20.69;52.15;99569.66;4890558;29;20055;-89
2022/05/11 00:23:09;;;;;;;4.68;2.60;;;;;;;20.68;52.00;99565.28;4890149;29;20079;-89
2022/05/11 00:25:35;;;;;;;4.70;2.13;;;;;;;20.62;52.99;99568.00;4890557;29;20111;-89
2022/05/11 00:28:00;;;;;;;3.22;2.20;;;;;;;20.66;52.89;99566.53;4874817;29;20025;-89
2022/05/11 00:30:27;;;;;;;4.88;2.30;;;;;;;20.58;53.14;99570.31;4874647;29;20070;-89
2022/05/11 00:32:54;;;;;;;2.75;2.47;;;;;;;20.51;53.80;99563.22;4874606;29;20044;-89
2022/05/11 00:35:20;;;;;;;3.40;2.50;;;;;;;20.57;53.39;99565.09;4890419;29;20045;-90
2022/05/11 00:37:45;;;;;;;3.63;2.55;;;;;;;20.59;53.27;99557.56;4890198;29;20037;-89
2022/05/11 00:40:11;;;;;;;4.13;3.22;;;;;;;20.58;53.84;99564.06;4889406;29;20028;-89
2022/05/11 00:42:36;;;;;;;5.93;3.30;;;;;;;20.54;53.50;99560.09;4874044;29;20056;-88
2022/05/11 00:45:03;;;;;;;5.40;3.22;;;;;;;20.51;53.91;99557.78;4890378;29;20461;-89
2022/05/11 00:47:46;;;;;;;3.85;3.40;;;;;;;20.48;54.42;99547.34;4889469;29;20708;-88
2022/05/11 00:50:20;;;;;;;5.55;3.67;;;;;;;20.45;54.35;99550.50;4889898;29;20131;-89
2022/05/11 00:52:53;;;;;;;4.38;3.28;;;;;;;20.38;54.93;99551.31;4889104;29;20024;-89
2022/05/11 00:55:49;;;;;;;5.45;3.83;;;;;;;20.34;54.46;99544.63;4889915;29;20028;-89
2022/05/11 00:58:37;;;;;;;5.72;3.97;;;;;;;20.29;54.46;99530.00;4853004;29;20044;-90
2022/05/11 01:01:03;;;;;;;5.90;4.05;;;;;;;20.28;54.97;99522.88;4874460;29;20036;-89
2022/05/11 01:03:36;;;;;;;6.03;4.25;;;;;;;20.32;55.25;99519.53;4889783;29;20040;-88
2022/05/11 01:06:02;;;;;;;4.90;3.90;;;;;;;20.34;55.02;99517.47;4874090;29;20032;-89
2022/05/11 01:08:28;;;;;;;8.07;4.60;;;;;;;20.29;55.80;99516.41;4889750;29;20043;-89
2022/05/11 01:10:54;;;;;;;6.65;4.38;;;;;;;20.23;55.14;99506.41;4889815;29;20036;-89
2022/05/11 01:13:20;;;;;;;5.53;4.30;;;;;;;20.22;55.51;99508.28;4889400;29;20043;-89
2022/05/11 01:15:49;;;;;;;4.68;3.78;;;;;;;20.26;55.28;99498.66;4873731;29;20032;-88
2022/05/11 01:18:14;;;;;;;5.47;4.30;;;;;;;20.23;56.55;99501.81;4889181;29;20088;-89
2022/05/11 01:20:40;;;;;;;5.63;4.00;;;;;;;20.20;56.11;99491.38;4889799;29;20427;-89
2022/05/11 01:23:17;;;;;;;4.32;3.92;;;;;;;20.20;56.80;99485.09;4889214;29;20043;-88
2022/05/11 01:25:43;;;;;;;7.38;4.20;;;;;;;20.17;56.16;99490.94;4889456;29;20042;-89
2022/05/11 01:28:12;;;;;;;5.63;4.55;;;;;;;20.15;56.95;99495.75;4889113;29;20040;-89
2022/05/11 01:30:43;;;;;;;5.03;4.45;;;;;;;20.17;56.57;99499.09;4888938;29;20040;-89
2022/05/11 01:33:13;;;;;;;5.88;4.80;;;;;;;20.10;56.31;99490.97;4889075;29;20514;-89
2022/05/11 01:35:51;;;;;;;6.75;4.60;;;;;;;19.95;57.88;99493.06;4889075;29;20029;-88
2022/05/11 01:38:41;;;;;;;6.47;3.87;;;;;;;19.98;56.75;99489.94;4873513;29;20340;-89
2022/05/11 01:41:08;;;;;;;5.38;3.83;;;;;;;19.95;56.99;99493.91;4889327;29;20281;-88
2022/05/11 01:43:36;;;;;;;5.78;4.22;;;;;;;19.89;57.13;99489.31;4888447;29;20151;-88
2022/05/11 01:46:02;;;;;;;4.85;4.15;;;;;;;19.88;57.23;99484.09;4874055;29;20052;-89
2022/05/11 01:48:28;;;;;;;5.47;3.85;;;;;;;19.89;57.37;99480.34;4889078;29;20051;-89
2022/05/11 01:50:53;;;;;;;4.78;3.90;;;;;;;19.95;57.02;99476.78;4888965;29;20024;-89
2022/05/11 01:53:19;;;;;;;5.68;4.00;;;;;;;19.89;57.59;99483.06;4888994;29;20673;-89
2022/05/11 01:55:45;;;;;;;4.38;3.97;;;;;;;19.88;57.14;99481.38;4873325;29;20274;-87
2022/05/11 01:58:13;;;;;;;5.47;4.35;;;;;;;19.87;57.23;99474.28;4888999;29;20033;-88
2022/05/11 02:00:39;;;;;;;;;;;;;;;19.87;56.70;99477.00;4889515;29;20559;-88
2022/05/11 02:03:05;;;;;;;4.85;4.10;;;;;;;19.86;57.51;99470.72;4888291;29;19919;-89
2022/05/11 02:08:14;;;;;;;5.57;4.65;;;;;;;19.82;57.44;99466.75;4889037;29;20074;-89
2022/05/11 02:10:40;;;;;;;6.90;4.72;;;;;;;19.81;57.07;99455.06;4888610;29;20028;-89
2022/05/11 02:13:05;;;;;;;6.20;4.53;;;;;;;19.78;57.26;99462.78;4872672;29;20025;-89
2022/05/11 02:15:31;;;;;;;4.70;4.30;;;;;;;19.80;57.26;99452.56;4888562;29;20068;-89
2022/05/11 02:17:56;;;;;;;6.75;4.82;;;;;;;19.73;57.59;99436.28;4888357;29;20052;-90
2022/05/11 02:20:22;;;;;;;5.00;4.50;;;;;;;19.73;58.73;99438.16;4872472;29;20040;-88
2022/05/11 02:22:48;;;;;;;6.20;4.68;;;;;;;19.69;58.17;99437.75;4887111;29;20033;-89
2022/05/11 02:25:18;;;;;;;9.52;5.80;;;;;;;19.65;58.60;99433.78;4888577;29;20028;-89
2022/05/11 02:27:45;;;;;;;11.07;5.93;;;;;;;19.64;58.18;99426.69;4888587;29;20048;-89
2022/05/11 02:30:14;;;;;;;8.65;6.15;;;;;;;19.65;58.15;99435.66;4887066;29;20029;-89
2022/05/11 02:32:40;;;;;;;7.25;5.50;;;;;;;19.66;58.72;99426.47;4887674;29;20119;-89
2022/05/11 02:35:12;;;;;;;7.63;5.20;;;;;;;19.65;58.74;99425.66;4888091;29;20119;-90
2022/05/11 02:37:38;;;;;;;6.10;4.88;;;;;;;19.65;58.80;99425.66;4889074;29;20197;-89
2022/05/11 02:40:05;;;;;;;9.07;5.38;;;;;;;19.70;57.97;99433.16;4888396;29;20060;-89
2022/05/11 02:42:30;;;;;;;7.03;4.78;;;;;;;19.74;57.99;99428.97;4887527;29;20095;-89
2022/05/11 02:44:56;;;;;;;5.72;4.65;;;;;;;19.71;57.90;99432.94;4887299;29;20068;-89
2022/05/11 02:47:21;;;;;;;7.68;4.70;;;;;;;19.70;58.33;99433.16;4886608;29;20072;-87
2022/05/11 02:49:46;;;;;;;5.22;4.72;;;;;;;19.70;58.55;99433.16;4887946;29;20032;-89
2022/05/11 02:52:14;;;;;;;6.65;4.93;;;;;;;19.59;58.93;99429.19;4887267;29;20628;-89
2022/05/11 02:54:40;;;;;;;6.63;4.95;;;;;;;19.55;59.53;99438.81;4887487;29;20210;-89
2022/05/11 02:57:05;;;;;;;6.47;4.50;;;;;;;19.59;58.56;99425.66;4887937;29;20029;-89
2022/05/11 02:59:31;;;;;;;6.13;4.60;;;;;;;19.60;59.02;99430.88;4887289;29;20032;-88
2022/05/11 03:01:56;;;;;;;6.65;4.50;;;;;;;19.59;58.77;99434.63;4872234;29;20024;-88
2022/05/11 03:04:22;;;;;;;6.05;4.72;;;;;;;19.54;58.60;99420.84;4887328;29;20070;-89
2022/05/11 03:06:47;;;;;;;7.50;4.22;;;;;;;19.50;59.38;99416.88;4887972;29;20057;-89
2022/05/11 03:09:15;;;;;;;5.22;4.53;;;;;;;19.48;58.69;99418.94;4887952;29;20047;-89
2022/05/11 03:11:41;;;;;;;5.63;4.63;;;;;;;19.45;58.51;99417.50;4887834;29;20036;-90
2022/05/11 03:14:06;;;;;;;6.80;4.70;;;;;;;19.42;59.31;99415.19;4887783;29;20037;-88
2022/05/11 03:16:32;;;;;;;6.00;4.90;;;;;;;19.42;59.16;99419.78;4871403;29;20088;-88
2022/05/11 03:18:59;;;;;;;5.82;4.70;;;;;;;19.38;59.26;99418.50;4887490;29;20032;-88
2022/05/11 03:21:25;;;;;;;5.95;4.72;;;;;;;19.34;59.32;99418.09;4872374;29;20044;-89
2022/05/11 03:23:50;;;;;;;6.05;4.90;;;;;;;19.34;59.32;99414.53;4887509;29;20032;-89
2022/05/11 03:26:15;;;;;;;6.80;4.90;;;;;;;19.35;59.10;99410.78;4871800;29;20116;-89
2022/05/11 03:28:41;;;;;;;6.15;4.97;;;;;;;19.33;59.08;99412.88;4871988;29;20056;-89
2022/05/11 03:31:06;;;;;;;6.93;4.88;;;;;;;19.26;59.03;99410.16;4886703;29;20033;-89
2022/05/11 03:36:15;;;;;;;5.50;4.90;;;;;;;19.19;59.28;99399.31;4887821;29;20084;-88
2022/05/11 03:38:41;;;;;;;6.80;5.22;;;;;;;19.15;59.47;99400.78;4887313;29;20028;-88
2022/05/11 03:41:06;;;;;;;7.03;5.07;;;;;;;19.17;59.50;99395.13;4887338;29;20064;-89
2022/05/11 03:43:31;;;;;;;6.70;5.18;;;;;;;19.14;59.77;99390.97;4886654;29;20076;-89
2022/05/11 03:45:59;;;;;;;7.10;5.15;;;;;;;19.15;59.77;99389.09;4902542;29;20064;-88
2022/05/11 03:48:24;;;;;;;6.95;4.80;;;;;;;19.12;59.52;99392.22;4871805;29;20495;-89
2022/05/11 03:50:50;;;;;;;5.40;4.90;;;;;;;19.09;59.84;99385.34;4886873;29;20028;-88
2022/05/11 03:53:15;;;;;;;6.75;4.93;;;;;;;19.09;59.84;99392.63;4886544;29;20056;-89
2022/05/11 03:55:40;;;;;;;6.95;5.00;;;;;;;19.05;59.81;99394.09;4887276;29;20066;-88
2022/05/11 03:58:06;;;;;;;8.43;5.20;;;;;;;18.99;60.07;99389.50;4886723;29;20116;-89
2022/05/11 04:00:32;;;;;;;5.72;5.10;;;;;;;19.01;59.85;99384.69;4886986;29;20184;-88
2022/05/11 04:02:58;;;;;;;7.28;4.78;;;;;;;18.96;60.20;99387.19;4871273;29;20039;-88
2022/05/11 04:05:24;;;;;;;8.18;4.93;;;;;;;18.85;60.60;99389.44;4871521;29;20033;-85
2022/05/11 04:07:49;;;;;;;5.43;4.97;;;;;;;18.75;60.46;99391.72;4886351;29;20396;-85
2022/05/11 04:10:17;;;;;;;6.05;4.90;;;;;;;18.82;60.38;99391.72;4886256;29;20044;-85
2022/05/11 04:12:42;;;;;;;5.53;4.80;;;;;;;18.80;60.00;99389.22;4870487;29;20479;-85
2022/05/11 04:15:09;;;;;;;5.40;4.68;;;;;;;18.83;60.55;99393.41;4886476;29;20029;-87
2022/05/11 04:17:34;;;;;;;4.82;4.35;;;;;;;18.80;60.57;99385.69;4886630;29;20131;-85
2022/05/11 04:20:00;;;;;;;6.32;4.82;;;;;;;18.79;60.48;99384.00;4888127;29;20119;-85
2022/05/11 04:22:25;;;;;;;5.25;4.75;;;;;;;18.76;59.91;99390.69;4885966;29;20100;-85
2022/05/11 04:24:50;;;;;;;7.15;5.03;;;;;;;18.76;60.59;99389.84;4886171;29;20502;-85
2022/05/11 04:27:16;;;;;;;8.88;4.78;;;;;;;18.74;60.24;99392.75;4886777;29;20675;-85
2022/05/11 04:29:41;;;;;;;5.30;4.80;;;;;;;18.69;60.42;99391.69;4889644;29;20718;-85
2022/05/11 04:32:08;;;;;;;6.75;5.07;;;;;;;18.68;60.33;99387.31;4890044;29;20067;-85
2022/05/11 04:34:34;;;;;;;5.22;4.70;;;;;;;18.67;61.03;99389.19;4889271;29;20056;-85
2022/05/11 04:36:59;;;;;;;6.20;5.10;;;;;;;18.70;60.52;99387.97;4889470;29;20056;-86
2022/05/11 04:39:25;;;;;;;6.35;5.03;;;;;;;18.72;60.85;99388.59;4873326;29;20043;-85
2022/05/11 04:41:50;;;;;;;5.90;4.63;;;;;;;18.70;60.28;99387.97;4889166;29;20330;-85
2022/05/11 04:44:16;;;;;;;5.28;4.78;;;;;;;18.69;59.95;99384.41;4888990;29;20029;-86
2022/05/11 04:46:41;;;;;;;10.05;5.32;;;;;;;18.70;59.90;99390.66;4889336;29;20038;-84
2022/05/11 04:49:23;;;;;;;10.45;5.18;;;;;;;18.68;60.16;99387.31;4873984;29;20036;-86
2022/05/11 04:52:07;;;;;;;9.23;5.60;;;;;;;18.66;59.33;99379.41;4890773;29;20495;-85
2022/05/11 04:54:34;;;;;;;6.28;4.85;;;;;;;18.65;59.52;99377.72;4889042;29;20072;-86
2022/05/11 04:57:00;;;;;;;6.55;5.05;;;;;;;18.68;59.93;99379.19;4889359;29;20040;-85
2022/05/11 04:59:25;;;;;;;7.70;4.72;;;;;;;18.67;60.09;99372.94;4889297;29;20048;-85
2022/05/11 05:01:51;;;;;;;5.20;4.70;;;;;;;18.66;59.78;99367.72;4905159;29;20390;-85
2022/05/11 05:04:19;;;;;;;5.53;4.35;;;;;;;18.70;59.25;99369.00;4873757;29;20033;-85
2022/05/11 05:06:45;;;;;;;6.10;4.78;;;;;;;18.70;59.13;99375.25;4889287;29;20028;-86
2022/05/11 05:09:10;;;;;;;7.43;4.50;;;;;;;18.74;59.10;99372.97;4872954;29;20033;-87
2022/05/11 05:11:35;;;;;;;6.30;4.18;;;;;;;18.73;59.87;99372.13;4889027;29;20028;-86
2022/05/11 05:14:01;;;;;;;5.95;4.47;;;;;;;18.75;59.68;99367.34;4889187;29;20031;-87
2022/05/11 05:16:26;;;;;;;6.43;4.20;;;;;;;18.76;59.20;99365.47;4887495;29;20043;-85
2022/05/11 05:18:52;;;;;;;6.30;3.97;;;;;;;18.77;59.63;99367.13;4888126;29;20036;-88
2022/05/11 05:21:17;;;;;;;4.35;3.65;;;;;;;18.80;60.03;99372.13;4872941;29;20223;-84
2022/05/11 05:23:43;;;;;;;5.38;4.63;;;;;;;18.83;59.36;99369.84;4886325;29;20486;-85
2022/05/11 05:26:08;;;;;;;7.00;4.25;;;;;;;18.85;59.30;99377.78;4889058;29;20041;-86
2022/05/11 05:31:21;;;;;;;7.30;4.15;;;;;;;18.86;59.31;99379.44;4887766;29;20043;-85
2022/05/11 05:33:47;;;;;;;5.32;3.38;;;;;;;18.87;60.18;99381.09;4887777;29;20032;-85
2022/05/11 05:36:12;;;;;;;6.82;3.20;;;;;;;18.89;59.53;99379.03;4871696;29;20131;-88
2022/05/11 05:38:38;;;;;;;4.60;3.28;;;;;;;18.91;59.70;99382.38;4886899;29;20037;-86
2022/05/11 05:41:07;;;;;;;3.90;3.20;;;;;;;18.90;59.60;99375.28;4887843;29;20386;-85
2022/05/11 05:43:33;;;;;;;4.25;3.28;;;;;;;18.91;59.77;99379.66;4887731;29;20075;-88
2022/05/11 05:45:58;;;;;;;4.05;3.15;;;;;;;18.94;59.66;99376.56;4888774;29;20562;-79
2022/05/11 05:48:23;;;;;;;4.65;3.05;;;;;;;18.97;59.44;99375.31;4873640;29;20123;-84
2022/05/11 05:50:49;;;;;;;5.88;3.20;;;;;;;18.99;59.88;99373.22;4888684;29;20048;-78
2022/05/11 05:53:19;;;;;;;6.00;3.55;;;;;;;19.01;59.22;99373.88;4891429;29;20097;-88
2022/05/11 05:55:48;;;;;;;5.18;3.17;;;;;;;19.04;59.61;99377.00;4888976;29;20028;-89
2022/05/11 05:58:14;;;;;;;3.40;2.88;;;;;;;19.07;59.72;99370.31;4889166;29;20041;-88
2022/05/11 06:00:40;;;;;;;6.20;2.90;;;;;;;19.10;58.88;99370.75;4887125;29;20031;-87
2022/05/11 06:03:05;;;;;;;3.65;3.20;;;;;;;19.13;59.14;99372.19;4894381;29;20028;-87
2022/05/11 06:05:36;;;;;;;3.28;2.97;;;;;;;19.16;59.29;99378.03;4890884;29;20163;-88
2022/05/11 06:08:02;;;;;;;5.18;3.63;;;;;;;19.16;59.75;99374.50;4888972;29;20391;-87
2022/05/11 06:10:29;;;;;;;3.97;3.53;;;;;;;19.22;59.63;99378.25;4889898;29;20107;-87
2022/05/11 06:12:55;;;;;;;4.13;3.57;;;;;;;19.25;59.43;99375.13;4875947;29;20037;-87
2022/05/11 06:15:20;;;;;;;4.03;3.53;;;;;;;19.24;59.88;99368.03;4876548;29;20351;-87
2022/05/11 06:17:46;;;;;;;4.15;3.35;;;;;;;19.24;59.88;99373.44;4894134;29;20036;-87
2022/05/11 06:20:12;;;;;;;4.30;3.90;;;;;;;19.26;59.59;99376.78;4894589;29;20063;-87
2022/05/11 06:22:37;;;;;;;5.47;3.97;;;;;;;19.26;59.55;99372.19;4894138;29;20455;-87
2022/05/11 06:25:04;;;;;;;4.50;4.05;;;;;;;19.25;60.21;99375.94;4893569;29;20161;-88
2022/05/11 06:27:29;;;;;;;4.72;3.80;;;;;;;19.29;60.18;99379.91;4894726;29;20078;-87
2022/05/11 06:30:00;;;;;;;4.45;3.97;;;;;;;19.34;60.83;99371.16;4894201;29;20044;-87
2022/05/11 06:32:26;;;;;;;4.22;3.83;;;;;;;19.34;61.17;99379.28;4893456;29;20376;-87
2022/05/11 06:34:52;;;;;;;5.20;4.10;;;;;;;19.36;60.52;99369.06;4878360;29;20020;-87
2022/05/11 06:37:22;;;;;;;5.57;4.20;;;;;;;19.34;60.16;99376.56;4892261;29;20044;-87
2022/05/11 06:39:48;;;;;;;4.30;3.90;;;;;;;19.34;60.39;99372.00;4878402;29;20036;-88
2022/05/11 06:42:14;;;;;;;4.25;3.95;;;;;;;19.37;60.96;99382.41;4895286;29;20056;-89
2022/05/11 06:44:40;;;;;;;4.93;3.92;;;;;;;19.41;61.20;99385.56;4895080;29;20383;-88
2022/05/11 06:47:05;;;;;;;7.70;4.65;;;;;;;19.43;60.97;99384.31;4895110;29;20471;-89
2022/05/11 06:49:32;;;;;;;4.38;3.97;;;;;;;19.38;61.53;99383.25;4893418;29;20867;-88
2022/05/11 06:51:57;;;;;;;4.68;4.18;;;;;;;19.38;61.28;99392.22;4877001;29;20028;-89
2022/05/11 06:59:53;;;;;;;5.90;3.95;;;;;;;19.41;61.18;99383.69;4894709;29;20092;-88
2022/05/11 07:02:19;;;;;;;5.53;4.03;;;;;;;19.43;61.88;99383.47;4893783;29;20123;-88
2022/05/11 07:04:44;;;;;;;7.57;4.18;;;;;;;19.43;61.81;99383.47;4877808;29;20622;-89
2022/05/11 07:07:11;;;;;;;6.40;3.65;;;;;;;19.43;61.17;99380.78;4892346;29;20490;-88
2022/05/11 07:09:37;;;;;;;4.50;4.10;;;;;;;19.43;61.14;99383.47;4894467;29;20087;-89
2022/05/11 07:12:18;;;;;;;4.22;3.72;;;;;;;19.38;60.29;99381.38;4894399;29;20033;-89
2022/05/11 07:14:44;;;;;;;4.00;3.60;;;;;;;19.39;60.36;99393.91;4897095;29;20032;-89
2022/05/11 07:17:10;;;;;;;5.00;3.60;;;;;;;19.45;60.41;99384.09;4894551;29;20028;-88
2022/05/11 07:19:37;;;;;;;4.45;3.65;;;;;;;19.42;60.75;99382.66;4893880;29;20031;-88
2022/05/11 07:22:02;;;;;;;5.78;3.80;;;;;;;19.43;60.07;99383.47;4893529;29;20028;-90
2022/05/11 07:24:27;;;;;;;4.85;3.17;;;;;;;19.47;61.06;99374.72;4893287;29;20501;-89
2022/05/11 07:26:54;;;;;;;3.50;3.20;;;;;;;19.45;59.65;99376.81;4893029;29;20048;-89
2022/05/11 07:29:19;;;;;;;5.43;3.67;;;;;;;19.45;60.25;99373.25;4878069;29;20025;-89
2022/05/11 07:31:46;;;;;;;4.28;3.88;;;;;;;19.46;60.08;99383.91;4893327;29;20039;-89
2022/05/11 07:34:12;;;;;;;4.93;4.43;;;;;;;19.47;59.89;99382.03;4894052;29;20408;-88
2022/05/11 07:36:37;;;;;;;4.07;3.67;;;;;;;19.46;60.22;99377.63;4894053;29;20107;-88
2022/05/11 07:39:03;;;;;;;5.00;3.95;;;;;;;19.47;60.99;99382.84;4894107;29;20579;-90
2022/05/11 07:41:28;;;;;;;3.80;3.50;;;;;;;19.49;60.17;99383.47;4894397;29;20420;-89
2022/05/11 07:43:54;;;;;;;5.45;3.97;;;;;;;19.52;60.02;99378.69;4893810;29;20045;-89
2022/05/11 07:46:20;;;;;;;4.72;3.92;;;;;;;19.52;59.14;99384.94;4893860;29;20096;-88
2022/05/11 07:48:47;;;;;;;4.07;3.45;;;;;;;19.49;58.59;99375.34;4878216;29;20029;-89
2022/05/11 07:51:13;;;;;;;4.40;3.85;;;;;;;19.51;58.93;99380.56;4879036;29;20036;-89
2022/05/11 07:53:38;;;;;;;5.78;3.80;;;;;;;19.52;59.26;99384.09;4897910;29;20045;-94
2022/05/11 08:01:31;;;;;;;6.85;4.93;;;;;;;19.53;59.66;99385.81;4880157;29;20036;-93
2022/05/11 08:03:57;;;;;;;5.10;4.60;;;;;;;19.52;59.16;99393.06;4867251;29;20454;-94
2022/05/11 08:06:22;;;;;;;6.50;4.43;;;;;;;19.55;59.54;99381.00;4875738;29;20543;-89
2022/05/11 08:08:48;;;;;;;7.05;4.85;;;;;;;19.51;59.77;99375.13;4886702;29;20071;-90
2022/05/11 08:11:13;;;;;;;5.40;4.90;;;;;;;19.49;60.05;99380.75;4886045;29;20024;-92
2022/05/11 08:13:39;;;;;;;5.82;5.03;;;;;;;19.53;60.26;99375.78;4901136;29;20025;-91
2022/05/11 08:16:04;;;;;;;7.57;4.85;;;;;;;19.54;60.02;99368.47;4885332;29;20024;-90
2022/05/11 08:18:30;;;;;;;5.90;4.47;;;;;;;19.57;59.81;99370.78;4901027;29;20084;-90
2022/05/11 08:20:55;;;;;;;4.28;3.92;;;;;;;19.56;60.10;99372.66;4900993;29;20032;-91
2022/05/11 08:23:21;;;;;;;4.50;3.70;;;;;;;19.58;59.52;99376.00;4885356;29;20116;-91
2022/05/11 08:25:47;;;;;;;3.22;2.80;;;;;;;19.60;60.08;99376.59;4901224;29;20483;-90
2022/05/11 08:28:18;;;;;;;4.10;3.17;;;;;;;19.58;58.50;99377.88;4900799;29;20123;-90
2022/05/11 08:33:29;;;;;;;4.28;2.60;;;;;;;19.63;59.34;99369.94;4897758;29;20091;-90
2022/05/11 08:36:00;;;;;;;5.43;3.17;;;;;;;19.61;58.52;99372.84;4900526;29;20028;-90
2022/05/11 08:38:29;;;;;;;4.43;2.97;;;;;;;19.60;58.16;99373.06;4900738;29;20036;-91
2022/05/11 08:41:03;;;;;;;4.25;3.03;;;;;;;19.58;58.48;99364.31;4900500;29;20502;-90
2022/05/11 08:43:31;;;;;;;4.57;2.70;;;;;;;19.58;58.98;99367.84;4885066;29;20099;-90
2022/05/11 08:46:15;;;;;;;;;;;;;;;19.62;58.94;99370.97;4901405;29;20028;-91
2022/05/11 08:48:47;;;;;;;3.45;2.83;;;;;;;19.56;59.27;99369.09;4900911;29;19912;-91
2022/05/11 08:51:21;;;;;;;3.58;2.60;;;;;;;19.65;60.27;99365.97;4900721;29;20084;-89
2022/05/11 08:53:51;;;;;;;3.30;2.70;;;;;;;19.72;60.15;99368.66;4900751;29;20039;-90
2022/05/11 08:56:17;;;;;;;5.47;3.28;;;;;;;19.68;59.06;99373.69;4896542;29;20045;-89
2022/05/11 08:58:52;;;;;;;3.90;2.92;;;;;;;19.71;59.36;99385.97;4895892;29;20043;-88
2022/05/11 09:01:29;;;;;;;4.72;3.17;;;;;;;19.66;59.35;99375.75;4911582;29;20029;-87
2022/05/11 09:03:55;;;;;;;3.10;2.83;;;;;;;19.66;59.15;99370.34;4896067;29;20037;-87
2022/05/11 09:06:27;;;;;;;5.95;3.42;;;;;;;19.66;59.94;99366.78;4895770;29;20036;-88
2022/05/11 09:08:58;;;;;;;3.78;3.00;;;;;;;19.67;59.42;99365.75;4911494;29;20028;-88
2022/05/11 09:11:51;;;;;;;7.78;2.92;;;;;;;19.69;59.32;99364.50;4897430;29;20127;-91
2022/05/11 09:14:30;;;;;;;3.70;2.53;;;;;;;19.72;59.27;99358.63;4899359;29;20036;-91
2022/05/11 09:16:56;;;;;;;6.50;2.90;;;;;;;19.76;60.17;99359.88;4900139;29;20063;-91
2022/05/11 09:19:25;;;;;;;4.03;2.60;;;;;;;19.83;60.78;99357.16;4899903;29;20064;-91
2022/05/11 09:22:10;;;;;;;4.00;2.67;;;;;;;19.81;60.64;99360.06;4900327;29;20024;-90
2022/05/11 09:24:43;;;;;;;3.40;2.90;;;;;;;19.82;59.39;99350.06;4899865;29;20028;-91
2022/05/11 09:30:30;;;;;;;4.25;2.80;;;;;;;19.80;59.87;99338.56;4900992;29;20147;-90
2022/05/11 09:33:17;;;;;;;4.93;3.45;;;;;;;19.82;60.31;99352.78;4886847;29;20507;-90
2022/05/11 09:35:44;;;;;;;5.05;3.20;;;;;;;19.80;60.29;99350.28;4897633;29;20120;-90
2022/05/11 09:38:26;;;;;;;4.13;2.97;;;;;;;19.79;60.36;99343.16;4882926;29;20080;-90
2022/05/11 09:41:10;;;;;;;5.35;2.92;;;;;;;19.81;59.48;99354.66;4895215;29;20032;-90
2022/05/11 09:43:38;;;;;;;4.50;2.85;;;;;;;19.82;60.15;99341.91;4898271;29;20499;-90
2022/05/11 09:46:29;;;;;;;4.53;2.78;;;;;;;19.84;60.38;99338.97;4898120;29;20111;-90
2022/05/11 09:48:59;;;;;;;8.35;2.85;;;;;;;19.82;60.13;99341.91;4908844;29;20484;-90
2022/05/11 09:51:42;;;;;;;3.63;2.65;;;;;;;19.85;60.22;99341.47;4896406;29;20043;-89
2022/05/11 09:54:33;;;;;;;3.38;2.53;;;;;;;19.88;60.70;99330.22;4896860;29;20035;-89
2022/05/11 09:57:08;;;;;;;5.50;2.80;;;;;;;19.90;60.25;99327.31;4896862;29;20053;-90
2022/05/11 09:59:45;;;;;;;8.43;3.08;;;;;;;19.87;60.11;99331.28;4897689;29;20028;-89
2022/05/11 10:02:32;;;;;;;4.28;3.00;;;;;;;19.87;59.67;99328.56;4898070;29;20039;-89
2022/05/11 10:05:06;;;;;;;5.43;2.67;;;;;;;19.91;60.07;99320.84;4896806;29;20032;-89
2022/05/11 10:07:45;;;;;;;3.47;2.42;;;;;;;19.89;59.90;99315.63;4897989;29;20050;-89
2022/05/11 10:10:27;;;;;;;2.95;2.50;;;;;;;19.93;60.06;99316.84;4882741;29;20029;-89
2022/05/11 10:12:55;;;;;;;2.90;2.60;;;;;;;19.95;60.26;99320.19;4897951;29;20040;-90
2022/05/11 10:24:23;;;;;;;4.25;2.55;;;;;;;20.06;61.65;99289.66;4896444;29;20052;-89
2022/05/11 10:26:51;;;;;;;;;;;;;;;20.08;59.77;99290.25;4894533;29;20032;-90
2022/05/11 10:29:36;;;;;;;6.32;3.42;;;;;;;20.06;59.79;99294.25;4894605;29;19919;-88
2022/05/11 10:32:12;;;;;;;3.13;2.42;;;;;;;20.08;61.37;99289.44;4895223;29;20029;-88
2022/05/11 10:34:51;;;;;;;3.65;2.42;;;;;;;20.08;61.02;99284.84;4894366;29;20024;-89
2022/05/11 10:37:16;;;;;;;;;;;;;;;20.12;61.95;99288.78;4895099;29;20048;-88
2022/05/11 10:40:15;;;;;;;3.63;2.20;;;;;;;20.16;61.62;99281.03;4894671;29;19919;-88
2022/05/11 10:42:47;;;;;;;4.80;3.20;;;;;;;20.19;61.59;99287.91;4864801;29;20632;-89
2022/05/11 10:45:34;;;;;;;3.75;2.97;;;;;;;20.22;60.67;99284.75;4878827;29;20432;-88
2022/05/11 10:48:06;;;;;;;4.50;3.20;;;;;;;20.21;60.90;99272.25;4894358;29;20047;-89
2022/05/11 10:50:59;;;;;;;4.65;2.75;;;;;;;20.21;61.38;99273.06;4897728;29;20294;-90
2022/05/11 10:53:33;;;;;;;4.38;2.72;;;;;;;20.25;61.39;99266.16;4898492;29;20040;-89
2022/05/11 10:56:25;;;;;;;5.20;3.65;;;;;;;20.27;60.95;99263.22;4898347;29;20056;-91
2022/05/11 10:58:56;;;;;;;4.50;2.60;;;;;;;20.29;60.75;99261.94;4898300;29;20036;-91
2022/05/11 11:01:24;;;;;;;4.47;3.08;;;;;;;20.29;60.70;99253.81;4898322;29;20029;-92
2022/05/11 11:04:27;;;;;;;9.10;3.45;;;;;;;20.33;60.18;99262.34;4882607;29;20031;-91
2022/05/11 11:07:11;;;;;;;8.75;2.88;;;;;;;20.35;61.10;99243.97;4839510;29;20076;-87
2022/05/11 11:09:42;;;;;;;7.95;2.90;;;;;;;20.35;61.38;99246.69;4889896;29;20045;-88
2022/05/11 11:12:32;;;;;;;4.50;3.00;;;;;;;20.42;59.97;99250.22;4895552;29;20048;-88
2022/05/11 11:15:00;;;;;;;4.97;2.92;;;;;;;20.45;60.20;99243.53;4894408;29;20036;-87
2022/05/11 11:17:27;;;;;;;4.10;2.78;;;;;;;20.45;61.24;99232.66;4893906;29;20969;-88
2022/05/11 11:19:56;;;;;;;3.00;2.80;;;;;;;20.48;61.96;99229.50;4893791;29;20075;-88
2022/05/11 11:22:22;;;;;;;4.15;3.08;;;;;;;20.52;61.51;99233.44;4878436;29;20103;-88
2022/05/11 11:25:16;;;;;;;5.47;3.33;;;;;;;20.52;60.78;99226.13;4892719;29;20139;-88
2022/05/11 11:28:08;;;;;;;7.18;3.72;;;;;;;20.57;61.11;99230.91;4890396;29;20028;-88
2022/05/11 11:30:34;;;;;;;4.13;3.13;;;;;;;20.63;61.08;99224.56;4878157;29;20048;-88
2022/05/11 11:33:10;;;;;;;3.60;3.10;;;;;;;20.62;61.02;99217.47;4890564;29;20028;-88
2022/05/11 11:35:39;;;;;;;4.47;3.40;;;;;;;20.65;61.14;99214.31;4893058;29;20037;-88
2022/05/11 11:38:06;;;;;;;4.15;3.22;;;;;;;20.71;60.29;99206.09;4912255;29;20092;-88
2022/05/11 11:40:33;;;;;;;4.13;2.97;;;;;;;20.77;59.16;99209.81;4898126;29;20035;-88
2022/05/11 11:43:38;;;;;;;3.90;3.03;;;;;;;20.72;59.82;99209.66;4897852;29;20458;-87
2022/05/11 11:45:47;;;;;;;2.92;2.67;;;;;;;20.79;60.22;99201.44;4896684;29;20048;-88
2022/05/11 11:48:19;;;;;;;5.00;3.17;;;;;;;20.79;59.31;99205.00;4912988;29;20397;-88
2022/05/11 11:50:48;;;;;;;5.20;2.95;;;;;;;20.83;59.67;99219.00;4898384;29;20519;-88
2022/05/11 11:53:26;;;;;;;4.80;3.20;;;;;;;20.87;59.44;99203.91;4909641;29;20036;-87
2022/05/11 11:55:52;;;;;;;3.33;3.03;;;;;;;20.83;60.43;99189.94;4912932;29;20071;-87
2022/05/11 11:58:29;;;;;;;3.05;2.75;;;;;;;20.84;60.33;99197.03;4881335;29;20036;-88
2022/05/11 12:01:15;;;;;;;3.63;3.07;;;;;;;20.90;60.10;99187.16;4911680;29;20068;-88
2022/05/11 12:03:53;;;;;;;4.90;3.08;;;;;;;20.89;59.31;99191.75;4894075;29;20036;-88
2022/05/11 12:15:01;;;;;;;4.10;3.10;;;;;;;21.04;58.76;99180.53;4900057;29;20582;-90
2022/05/11 12:17:36;;;;;;;4.45;3.05;;;;;;;21.03;59.55;99179.69;4900618;29;20032;-87
2022/05/11 12:20:07;;;;;;;3.72;2.88;;;;;;;21.08;59.13;99176.28;4912378;29;20040;-86
2022/05/11 12:22:38;;;;;;;4.20;3.00;;;;;;;21.08;59.87;99168.13;4898001;29;20398;-87
2022/05/11 12:25:12;;;;;;;3.30;3.00;;;;;;;21.06;59.32;99165.66;4895966;29;20032;-87
2022/05/11 12:27:38;;;;;;;2.97;2.67;;;;;;;21.07;60.85;99171.91;4895968;29;20111;-87